createdAt,value
2023-01-17T00:02:20.895Z,10.20
2023-01-17T00:05:07.869Z,9.90
2023-01-17T00:07:54.479Z,12.20
2023-01-17T00:10:25.422Z,15.50
2023-01-17T00:12:58.427Z,14.10
2023-01-17T00:15:28.698Z,16.30
2023-01-17T00:17:58.551Z,14.70
2023-01-17T00:20:48.017Z,15.50
2023-01-17T00:23:41.007Z,15.70
2023-01-17T00:26:18.727Z,14.10
2023-01-17T00:28:48.903Z,17.40
2023-01-17T00:31:17.190Z,19.30
2023-01-17T00:33:45.553Z,14.60
2023-01-17T00:36:14.006Z,12.60
2023-01-17T00:38:42.210Z,12.20
2023-01-17T00:41:13.157Z,11.90
2023-01-17T00:43:59.650Z,11.70
2023-01-17T00:46:46.279Z,13.10
2023-01-17T00:49:32.870Z,11.30
2023-01-17T00:52:19.834Z,13.10
2023-01-17T00:55:06.429Z,13.70
2023-01-17T00:57:53.117Z,14.10
2023-01-17T01:00:39.887Z,13.20
2023-01-17T01:03:30.418Z,14.90
2023-01-17T01:06:17.102Z,14.40
2023-01-17T01:09:03.724Z,15.70
2023-01-17T01:11:50.511Z,17.00
2023-01-17T01:14:37.082Z,15.30
2023-01-17T01:17:24.018Z,13.90
2023-01-17T01:20:10.599Z,15.70
2023-01-17T01:22:57.588Z,15.40
2023-01-17T01:25:44.194Z,15.30
2023-01-17T01:28:32.857Z,16.30
2023-01-17T01:31:23.489Z,13.30
2023-01-17T01:33:52.866Z,14.80
2023-01-17T01:36:21.118Z,11.90
2023-01-17T01:38:50.386Z,13.10
2023-01-17T01:41:18.693Z,11.70
2023-01-17T01:43:49.027Z,14.00
2023-01-17T01:46:23.191Z,12.70
2023-01-17T01:49:15.309Z,11.50
2023-01-17T01:51:51.127Z,10.30
2023-01-17T01:54:45.022Z,13.30
2023-01-17T01:59:54.425Z,12.90
2023-01-17T02:02:22.649Z,13.70
2023-01-17T02:04:51.649Z,12.90
2023-01-17T02:07:33.335Z,14.10
2023-01-17T02:10:03.122Z,14.10
2023-01-17T02:12:31.364Z,16.80
2023-01-17T02:15:00.179Z,17.00
2023-01-17T02:18:06.433Z,14.90
2023-01-17T02:21:19.127Z,16.80
2023-01-17T02:24:17.991Z,16.70
2023-01-17T02:27:00.765Z,18.00
2023-01-17T02:29:53.444Z,20.80
2023-01-17T02:32:27.264Z,20.00
2023-01-17T02:35:22.031Z,20.20
2023-01-17T02:38:03.995Z,18.30
2023-01-17T02:40:41.980Z,15.40
2023-01-17T02:43:14.615Z,14.80
2023-01-17T02:45:43.268Z,13.90
2023-01-17T02:48:14.991Z,14.70
2023-01-17T02:50:46.129Z,18.00
2023-01-17T02:53:31.177Z,16.90
2023-01-17T02:56:36.414Z,15.10
2023-01-17T02:59:33.869Z,16.50
2023-01-17T03:02:12.905Z,23.20
2023-01-17T03:04:49.846Z,18.10
2023-01-17T03:07:24.151Z,11.90
2023-01-17T03:10:01.579Z,13.10
2023-01-17T03:12:31.471Z,15.60
2023-01-17T03:14:59.653Z,14.80
2023-01-17T03:17:32.715Z,12.90
2023-01-17T03:20:01.140Z,14.40
2023-01-17T03:22:29.421Z,12.50
2023-01-17T03:24:57.661Z,13.80
2023-01-17T03:27:25.684Z,13.40
2023-01-17T03:29:53.902Z,10.90
2023-01-17T03:32:22.036Z,11.00
2023-01-17T03:34:50.277Z,11.80
2023-01-17T03:37:18.572Z,12.70
2023-01-17T03:39:46.698Z,14.00
2023-01-17T03:42:14.867Z,14.40
2023-01-17T03:44:43.056Z,13.80
2023-01-17T03:47:12.345Z,12.10
2023-01-17T03:49:40.895Z,14.10
2023-01-17T03:52:09.257Z,13.10
2023-01-17T03:54:37.432Z,13.80
2023-01-17T03:57:05.700Z,15.10
2023-01-17T03:59:34.184Z,13.60
2023-01-17T04:02:03.119Z,14.10
2023-01-17T04:04:31.217Z,13.50
2023-01-17T04:06:59.364Z,14.30
2023-01-17T04:09:27.527Z,14.30
2023-01-17T04:11:55.730Z,11.30
2023-01-17T04:14:23.776Z,15.10
2023-01-17T04:16:51.861Z,16.50
2023-01-17T04:19:20.905Z,14.30
2023-01-17T04:21:49.307Z,10.40
2023-01-17T04:24:18.136Z,10.50
2023-01-17T04:26:46.348Z,12.20
2023-01-17T04:29:14.686Z,13.50
2023-01-17T04:31:43.096Z,23.10
2023-01-17T04:34:11.537Z,23.60
2023-01-17T04:36:39.740Z,18.50
2023-01-17T04:39:07.748Z,20.40
2023-01-17T04:41:36.136Z,22.60
2023-01-17T04:44:04.623Z,21.30
2023-01-17T04:46:32.779Z,22.10
2023-01-17T04:49:01.087Z,19.80
2023-01-17T04:51:29.330Z,37.70
2023-01-17T04:53:57.465Z,40.30
2023-01-17T04:56:25.521Z,39.50
2023-01-17T04:58:53.724Z,41.90
2023-01-17T05:01:22.003Z,30.50
2023-01-17T05:03:50.648Z,30.50
2023-01-17T05:06:18.857Z,26.70
2023-01-17T05:08:47.026Z,30.60
2023-01-17T05:11:15.148Z,24.40
2023-01-17T05:13:43.235Z,18.70
2023-01-17T05:16:11.298Z,26.30
2023-01-17T05:18:39.510Z,14.10
2023-01-17T05:21:07.538Z,31.00
2023-01-17T05:23:35.730Z,30.10
2023-01-17T05:26:03.876Z,36.80
2023-01-17T05:28:33.087Z,26.90
2023-01-17T05:31:01.162Z,58.70
2023-01-17T05:33:30.039Z,28.40
2023-01-17T05:35:58.598Z,30.00
2023-01-17T05:38:26.736Z,43.20
2023-01-17T05:40:54.971Z,41.50
2023-01-17T05:43:23.210Z,43.60
2023-01-17T05:45:51.354Z,35.90
2023-01-17T05:48:19.681Z,26.90
2023-01-17T05:50:47.856Z,32.30
2023-01-17T05:53:16.934Z,33.10
2023-01-17T05:55:45.425Z,27.40
2023-01-17T05:58:20.477Z,31.30
2023-01-17T06:00:49.762Z,25.60
2023-01-17T06:03:18.310Z,21.10
2023-01-17T06:05:47.148Z,14.70
2023-01-17T06:08:15.970Z,44.90
2023-01-17T06:10:44.361Z,31.30
2023-01-17T06:13:15.394Z,16.30
2023-01-17T06:15:43.781Z,19.10
2023-01-17T06:18:15.393Z,34.80
2023-01-17T06:20:44.210Z,25.00
2023-01-17T06:23:14.162Z,24.40
2023-01-17T06:25:45.030Z,19.60
2023-01-17T06:28:15.789Z,19.10
2023-01-17T06:30:44.789Z,21.50
2023-01-17T06:33:14.049Z,22.30
2023-01-17T06:35:50.412Z,26.10
2023-01-17T06:38:19.381Z,23.80
2023-01-17T06:40:49.455Z,69.80
2023-01-17T06:43:18.096Z,29.90
2023-01-17T06:45:46.393Z,30.80
2023-01-17T06:48:15.680Z,30.00
2023-01-17T06:50:44.103Z,24.10
2023-01-17T06:53:12.197Z,22.40
2023-01-17T06:55:40.477Z,25.50
2023-01-17T06:58:09.318Z,27.40
2023-01-17T07:00:41.103Z,42.30
2023-01-17T07:03:20.639Z,25.90
2023-01-17T07:05:50.551Z,25.30
2023-01-17T07:08:21.605Z,28.50
2023-01-17T07:10:49.764Z,28.20
2023-01-17T07:13:18.796Z,23.80
2023-01-17T07:15:48.608Z,24.10
2023-01-17T07:18:20.738Z,18.90
2023-01-17T07:20:50.248Z,12.10
2023-01-17T07:23:19.972Z,15.70
2023-01-17T07:25:56.890Z,18.50
2023-01-17T07:28:26.302Z,13.20
2023-01-17T07:30:54.701Z,14.60
2023-01-17T07:33:24.324Z,15.00
2023-01-17T07:35:53.285Z,10.20
2023-01-17T07:38:21.525Z,9.90
2023-01-17T07:40:49.706Z,42.30
2023-01-17T07:43:17.931Z,216.90
2023-01-17T07:45:51.851Z,41.40
2023-01-17T07:48:22.621Z,39.10
2023-01-17T07:50:54.987Z,21.80
2023-01-17T07:53:25.241Z,13.30
2023-01-17T07:55:53.831Z,21.70
2023-01-17T07:58:23.163Z,42.90
2023-01-17T08:00:52.519Z,13.70
2023-01-17T08:03:21.753Z,13.30
2023-01-17T08:05:55.529Z,15.40
2023-01-17T08:08:23.964Z,12.80
2023-01-17T08:10:52.202Z,13.30
2023-01-17T08:13:22.035Z,12.50
2023-01-17T08:15:51.082Z,16.30
2023-01-17T08:18:19.272Z,15.00
2023-01-17T08:20:47.531Z,11.40
2023-01-17T08:23:15.882Z,9.20
2023-01-17T08:25:44.748Z,39.80
2023-01-17T08:28:13.095Z,15.50
2023-01-17T08:30:41.253Z,19.50
2023-01-17T08:33:09.562Z,24.10
2023-01-17T08:35:37.641Z,12.10
2023-01-17T08:38:06.141Z,12.50
2023-01-17T08:40:34.323Z,10.40
2023-01-17T08:43:03.984Z,11.60
2023-01-17T08:45:32.399Z,11.70
2023-01-17T08:48:00.554Z,8.80
2023-01-17T08:50:28.761Z,11.40
2023-01-17T08:53:01.276Z,7.40
2023-01-17T08:55:29.881Z,8.50
2023-01-17T08:57:58.057Z,15.20
2023-01-17T09:00:28.635Z,16.30
2023-01-17T09:02:56.963Z,4.80
2023-01-17T09:05:25.219Z,1.40
2023-01-17T09:07:54.644Z,2.10
2023-01-17T09:10:23.784Z,1.70
2023-01-17T09:12:52.227Z,1.30
2023-01-17T09:15:20.400Z,1.30
2023-01-17T09:17:48.510Z,1.30
2023-01-17T09:20:17.094Z,2.80
2023-01-17T09:22:46.259Z,1.90
2023-01-17T09:25:15.524Z,1.20
2023-01-17T09:27:47.514Z,0.80
2023-01-17T09:30:16.207Z,1.60
2023-01-17T09:32:52.362Z,1.70
2023-01-17T09:35:20.855Z,2.10
2023-01-17T09:37:52.620Z,2.00
2023-01-17T09:40:24.745Z,1.60
2023-01-17T09:43:02.753Z,1.20
2023-01-17T09:45:34.030Z,1.20
2023-01-17T09:48:08.972Z,1.40
2023-01-17T09:51:08.653Z,1.30
2023-01-17T09:53:41.719Z,1.70
2023-01-17T09:56:16.071Z,1.50
2023-01-17T09:59:35.309Z,2.30
2023-01-17T10:02:28.784Z,2.10
2023-01-17T10:05:06.521Z,1.40
2023-01-17T10:07:50.927Z,1.50
2023-01-17T10:10:40.932Z,2.50
2023-01-17T10:13:21.507Z,1.80
2023-01-17T10:16:01.601Z,1.80
2023-01-17T10:18:30.588Z,2.20
2023-01-17T10:21:09.698Z,0.70
2023-01-17T10:23:42.102Z,1.00
2023-01-17T10:26:19.511Z,0.60
2023-01-17T10:28:51.609Z,1.60
2023-01-17T10:31:25.350Z,1.90
2023-01-17T10:34:18.683Z,1.10
2023-01-17T10:37:11.549Z,0.90
2023-01-17T10:39:39.819Z,0.60
2023-01-17T10:42:35.330Z,1.60
2023-01-17T10:45:16.895Z,0.90
2023-01-17T10:47:51.360Z,0.70
2023-01-17T10:50:23.688Z,0.80
2023-01-17T10:52:59.077Z,0.70
2023-01-17T10:55:48.546Z,0.50
2023-01-17T10:58:16.613Z,0.50
2023-01-17T11:01:03.067Z,0.70
2023-01-17T11:03:32.343Z,0.40
2023-01-17T11:06:33.868Z,0.60
2023-01-17T11:09:03.578Z,0.80
2023-01-17T11:11:34.438Z,0.90
2023-01-17T11:14:25.805Z,3.20
2023-01-17T11:17:02.640Z,1.70
2023-01-17T11:19:36.258Z,0.40
2023-01-17T11:22:09.568Z,0.90
2023-01-17T11:24:53.921Z,0.50
2023-01-17T11:27:42.332Z,0.40
2023-01-17T11:30:17.687Z,1.10
2023-01-17T11:33:06.097Z,0.90
2023-01-17T11:35:38.928Z,0.40
2023-01-17T11:40:45.021Z,0.70
2023-01-17T11:43:18.532Z,1.10
2023-01-17T11:46:01.536Z,0.30
2023-01-17T11:51:24.216Z,2.30
2023-01-17T11:53:54.674Z,0.60
2023-01-17T11:56:37.708Z,0.40
2023-01-17T11:59:37.579Z,0.40
2023-01-17T12:02:33.738Z,0.60
2023-01-17T12:05:02.129Z,0.80
2023-01-17T12:07:43.185Z,1.70
2023-01-17T12:10:11.515Z,1.10
2023-01-17T12:13:02.620Z,2.30
2023-01-17T12:15:57.838Z,1.30
2023-01-17T12:18:34.937Z,0.60
2023-01-17T12:21:17.761Z,0.90
2023-01-17T12:24:21.797Z,0.40
2023-01-17T12:26:54.677Z,0.90
2023-01-17T12:29:43.712Z,1.90
2023-01-17T12:32:33.231Z,1.90
2023-01-17T12:35:13.006Z,2.40
2023-01-17T12:37:44.627Z,0.80
2023-01-17T12:40:35.561Z,0.40
2023-01-17T12:43:08.951Z,1.40
2023-01-17T12:45:45.843Z,2.00
2023-01-17T12:48:20.519Z,2.60
2023-01-17T12:51:05.940Z,0.50
2023-01-17T12:54:02.150Z,0.80
2023-01-17T12:56:59.421Z,0.30
2023-01-17T12:59:46.766Z,0.80
2023-01-17T13:02:26.300Z,0.80
2023-01-17T13:05:03.808Z,0.40
2023-01-17T13:07:50.825Z,0.30
2023-01-17T13:10:22.621Z,0.30
2023-01-17T13:12:51.918Z,2.30
2023-01-17T13:15:25.958Z,1.10
2023-01-17T13:18:03.029Z,3.60
2023-01-17T13:21:09.394Z,0.80
2023-01-17T13:24:31.568Z,0.30
2023-01-17T13:27:24.228Z,1.70
2023-01-17T13:30:04.555Z,0.40
2023-01-17T13:32:51.481Z,0.50
2023-01-17T13:35:28.547Z,1.80
2023-01-17T13:38:22.916Z,3.40
2023-01-17T13:40:55.043Z,2.50
2023-01-17T13:43:27.043Z,1.90
2023-01-17T13:45:57.820Z,1.90
2023-01-17T13:48:28.202Z,0.40
2023-01-17T13:50:57.846Z,0.20
2023-01-17T13:53:29.421Z,0.50
2023-01-17T13:56:18.478Z,1.40
2023-01-17T13:58:54.604Z,0.60
2023-01-17T14:01:22.968Z,0.40
2023-01-17T14:03:52.675Z,0.30
2023-01-17T14:06:36.073Z,0.40
2023-01-17T14:09:22.590Z,0.50
2023-01-17T14:12:15.363Z,0.30
2023-01-17T14:14:48.714Z,0.40
2023-01-17T14:17:25.659Z,0.30
2023-01-17T14:20:06.279Z,0.40
2023-01-17T14:22:42.090Z,0.30
2023-01-17T14:25:15.132Z,0.40
2023-01-17T14:30:18.347Z,0.40
2023-01-17T14:33:01.518Z,0.90
2023-01-17T14:35:34.472Z,0.70
2023-01-17T14:38:12.462Z,0.60
2023-01-17T14:40:41.181Z,0.60
2023-01-17T14:43:16.109Z,0.60
2023-01-17T14:45:45.196Z,0.60
2023-01-17T14:48:20.490Z,0.90
2023-01-17T14:50:54.939Z,1.30
2023-01-17T14:53:32.260Z,0.50
2023-01-17T14:56:12.381Z,0.50
2023-01-17T14:58:41.568Z,1.30
2023-01-17T15:01:19.664Z,0.50
2023-01-17T15:03:54.090Z,0.80
2023-01-17T15:06:33.113Z,1.90
2023-01-17T15:09:01.426Z,0.80
2023-01-17T15:11:33.176Z,0.50
2023-01-17T15:14:08.213Z,0.50
2023-01-17T15:16:38.378Z,0.40
2023-01-17T15:19:14.979Z,1.10
2023-01-17T15:21:45.823Z,1.70
2023-01-17T15:24:21.742Z,0.50
2023-01-17T15:26:50.704Z,2.40
2023-01-17T15:29:28.379Z,2.40
2023-01-17T15:31:58.651Z,2.60
2023-01-17T15:34:30.035Z,1.10
2023-01-17T15:37:04.753Z,4.40
2023-01-17T15:39:40.494Z,3.10
2023-01-17T15:42:21.886Z,1.20
2023-01-17T15:44:59.443Z,7.20
2023-01-17T15:47:40.056Z,0.80
2023-01-17T15:50:21.186Z,13.00
2023-01-17T15:52:50.675Z,4.70
2023-01-17T15:55:31.040Z,5.60
2023-01-17T15:58:00.545Z,1.10
2023-01-17T16:00:32.834Z,12.80
2023-01-17T16:03:02.320Z,16.10
2023-01-17T16:05:33.495Z,4.20
2023-01-17T16:08:06.111Z,11.70
2023-01-17T16:10:39.176Z,3.00
2023-01-17T16:13:10.033Z,2.40
2023-01-17T16:15:40.068Z,4.00
2023-01-17T16:18:36.086Z,3.40
2023-01-17T16:21:21.321Z,20.50
2023-01-17T16:23:50.242Z,13.60
2023-01-17T16:26:18.775Z,10.00
2023-01-17T16:28:47.336Z,11.70
2023-01-17T16:31:17.480Z,8.70
2023-01-17T16:33:49.515Z,9.40
2023-01-17T16:36:18.322Z,10.50
2023-01-17T16:38:49.898Z,12.90
2023-01-17T16:41:19.331Z,9.80
2023-01-17T16:43:57.742Z,9.80
2023-01-17T16:46:27.153Z,6.80
2023-01-17T16:48:55.989Z,12.70
2023-01-17T16:51:24.286Z,19.10
2023-01-17T16:53:52.708Z,8.50
2023-01-17T16:56:21.070Z,6.50
2023-01-17T16:58:52.120Z,3.20
2023-01-17T17:01:22.767Z,15.70
2023-01-17T17:03:51.421Z,4.20
2023-01-17T17:06:20.064Z,10.00
2023-01-17T17:08:48.369Z,33.50
2023-01-17T17:11:20.174Z,25.70
2023-01-17T17:13:50.475Z,27.10
2023-01-17T17:16:30.068Z,33.70
2023-01-17T17:19:04.358Z,36.30
2023-01-17T17:21:35.162Z,16.50
2023-01-17T17:24:05.537Z,24.80
2023-01-17T17:26:36.121Z,7.00
2023-01-17T17:29:06.782Z,8.60
2023-01-17T17:31:35.039Z,12.30
2023-01-17T17:34:05.320Z,12.90
2023-01-17T17:36:35.266Z,22.30
2023-01-17T17:39:05.986Z,26.60
2023-01-17T17:41:39.260Z,15.10
2023-01-17T17:44:07.398Z,11.80
2023-01-17T17:46:37.298Z,48.30
2023-01-17T17:49:06.817Z,45.50
2023-01-17T17:51:38.364Z,33.40
2023-01-17T17:54:09.995Z,13.50
2023-01-17T17:56:40.515Z,12.20
2023-01-17T17:59:10.349Z,18.70
2023-01-17T18:01:38.528Z,13.30
2023-01-17T18:04:08.240Z,5.00
2023-01-17T18:06:36.620Z,5.90
2023-01-17T18:09:10.158Z,4.40
2023-01-17T18:11:40.813Z,6.00
2023-01-17T18:14:12.662Z,12.60
2023-01-17T18:16:43.947Z,12.90
2023-01-17T18:19:20.766Z,9.40
2023-01-17T18:21:50.506Z,8.90
2023-01-17T18:24:21.600Z,10.60
2023-01-17T18:26:52.414Z,10.60
2023-01-17T18:29:21.922Z,10.70
2023-01-17T18:31:52.062Z,8.50
2023-01-17T18:34:24.391Z,4.70
2023-01-17T18:36:53.750Z,4.90
2023-01-17T18:39:25.593Z,8.40
2023-01-17T18:41:54.617Z,6.70
2023-01-17T18:44:23.341Z,12.30
2023-01-17T18:46:54.736Z,16.00
2023-01-17T18:49:27.367Z,11.80
2023-01-17T18:51:55.398Z,14.80
2023-01-17T18:54:23.501Z,7.10
2023-01-17T18:56:51.655Z,17.50
2023-01-17T18:59:20.460Z,25.10
2023-01-17T19:01:49.455Z,21.50
2023-01-17T19:04:19.042Z,14.50
2023-01-17T19:06:48.592Z,16.00
2023-01-17T19:09:17.444Z,7.70
2023-01-17T19:11:47.584Z,7.50
2023-01-17T19:14:16.981Z,5.30
2023-01-17T19:16:45.199Z,7.10
2023-01-17T19:19:15.551Z,6.30
2023-01-17T19:21:44.099Z,4.60
2023-01-17T19:24:13.312Z,4.90
2023-01-17T19:26:43.464Z,9.00
2023-01-17T19:29:12.397Z,6.40
2023-01-17T19:31:43.365Z,6.00
2023-01-17T19:34:14.759Z,5.10
2023-01-17T19:36:43.570Z,5.20
2023-01-17T19:39:11.968Z,7.30
2023-01-17T19:41:45.112Z,6.30
2023-01-17T19:44:15.281Z,5.20
2023-01-17T19:46:45.575Z,3.40
2023-01-17T19:49:13.734Z,4.50
2023-01-17T19:51:42.361Z,4.00
2023-01-17T19:54:10.694Z,6.70
2023-01-17T19:56:39.140Z,2.70
2023-01-17T19:59:08.289Z,5.60
2023-01-17T20:01:36.722Z,2.60
2023-01-17T20:04:05.415Z,4.40
2023-01-17T20:06:36.997Z,3.60
2023-01-17T20:09:06.073Z,2.80
2023-01-17T20:11:34.470Z,1.50
2023-01-17T20:14:05.611Z,0.60
2023-01-17T20:16:37.051Z,1.40
2023-01-17T20:19:05.395Z,0.70
2023-01-17T20:21:34.417Z,0.90
2023-01-17T20:24:05.406Z,0.50
2023-01-17T20:26:35.328Z,0.60
2023-01-17T20:29:11.065Z,0.40
2023-01-17T20:31:40.773Z,0.40
2023-01-17T20:34:12.243Z,0.50
2023-01-17T20:36:41.966Z,0.60
2023-01-17T20:39:12.501Z,0.50
2023-01-17T20:41:42.527Z,0.60
2023-01-17T20:44:14.121Z,0.60
2023-01-17T20:46:43.216Z,0.60
2023-01-17T20:49:17.340Z,0.50
2023-01-17T20:51:46.549Z,0.50
2023-01-17T20:54:19.561Z,0.50
2023-01-17T20:56:48.009Z,0.40
2023-01-17T20:59:22.279Z,0.40
2023-01-17T21:01:51.863Z,0.40
2023-01-17T21:04:25.784Z,0.30
2023-01-17T21:06:54.848Z,0.70
2023-01-17T21:09:23.212Z,0.60
2023-01-17T21:11:51.961Z,0.30
2023-01-17T21:14:21.825Z,0.30
2023-01-17T21:16:50.484Z,1.70
2023-01-17T21:19:18.672Z,0.80
2023-01-17T21:21:48.532Z,0.40
2023-01-17T21:24:18.974Z,0.30
2023-01-17T21:26:47.387Z,0.30
2023-01-17T21:29:16.200Z,0.30
2023-01-17T21:31:45.285Z,0.20
2023-01-17T21:34:13.881Z,0.30
2023-01-17T21:36:42.629Z,0.30
2023-01-17T21:39:15.790Z,0.30
2023-01-17T21:44:20.305Z,0.30
2023-01-17T21:46:49.645Z,0.20
2023-01-17T21:49:17.875Z,0.20
2023-01-17T21:51:55.343Z,0.50
2023-01-17T21:54:44.585Z,0.20
2023-01-17T21:57:33.441Z,0.20
2023-01-17T22:00:01.913Z,0.40
2023-01-17T22:02:41.037Z,0.30
2023-01-17T22:05:10.316Z,0.40
2023-01-17T22:08:01.224Z,0.30
2023-01-17T22:10:29.271Z,0.40
2023-01-17T22:12:57.476Z,0.50
2023-01-17T22:15:25.632Z,0.50
2023-01-17T22:17:53.856Z,0.30
2023-01-17T22:20:22.219Z,0.40
2023-01-17T22:22:50.245Z,0.30
2023-01-17T22:25:18.382Z,0.40
2023-01-17T22:27:46.731Z,0.30
2023-01-17T22:30:15.073Z,0.40
2023-01-17T22:32:43.127Z,0.30
2023-01-17T22:35:11.346Z,0.30
2023-01-17T22:37:39.509Z,0.40
2023-01-17T22:40:10.098Z,0.40
2023-01-17T22:42:38.785Z,0.40
2023-01-17T22:45:07.918Z,0.20
2023-01-17T22:47:37.077Z,2.20
2023-01-17T22:50:07.624Z,0.30
2023-01-17T22:52:35.872Z,0.20
2023-01-17T22:55:04.789Z,0.20
2023-01-17T22:57:33.195Z,0.20
2023-01-17T23:00:01.260Z,0.20
2023-01-17T23:02:29.696Z,0.10
2023-01-17T23:04:57.819Z,0.20
2023-01-17T23:07:27.060Z,0.30
2023-01-17T23:09:55.283Z,0.20
2023-01-17T23:12:23.332Z,0.20
2023-01-17T23:15:10.079Z,0.20
2023-01-17T23:17:56.762Z,0.80
2023-01-17T23:20:24.908Z,0.30
2023-01-17T23:22:53.200Z,0.40
2023-01-17T23:25:22.120Z,0.40
2023-01-17T23:28:08.894Z,0.30
2023-01-17T23:30:39.426Z,0.30
2023-01-17T23:33:10.302Z,0.20
2023-01-17T23:35:42.095Z,0.30
2023-01-17T23:38:30.903Z,0.20
2023-01-17T23:41:25.886Z,0.10
2023-01-17T23:43:56.190Z,0.10
2023-01-17T23:46:25.926Z,0.00
2023-01-17T23:48:55.152Z,0.20
2023-01-17T23:51:23.338Z,0.10
2023-01-17T23:53:57.484Z,0.40
2023-01-17T23:56:25.874Z,0.10
2023-01-17T23:58:54.256Z,0.10
